sensor_id;sensor_type;location;lat;lon;timestamp;P1;durP1;ratioP1;P2;durP2;ratioP2
67981;SDS011;64109;52.148;4.466;2023-03-01T00:00:36;4.50;;;3.42;;
67981;SDS011;64109;52.148;4.466;2023-03-01T00:03:02;5.25;;;3.83;;
67981;SDS011;64109;52.148;4.466;2023-03-01T00:05:28;5.30;;;3.70;;
67981;SDS011;64109;52.148;4.466;2023-03-01T00:07:54;5.60;;;3.38;;
67981;SDS011;64109;52.148;4.466;2023-03-01T00:10:20;6.00;;;3.83;;
67981;SDS011;64109;52.148;4.466;2023-03-01T00:12:46;4.43;;;3.70;;
67981;SDS011;64109;52.148;4.466;2023-03-01T00:15:12;4.68;;;3.17;;
67981;SDS011;64109;52.148;4.466;2023-03-01T00:17:38;4.53;;;4.00;;
67981;SDS011;64109;52.148;4.466;2023-03-01T00:20:04;5.55;;;4.50;;
67981;SDS011;64109;52.148;4.466;2023-03-01T00:22:35;6.00;;;2.50;;
67981;SDS011;64109;52.148;4.466;2023-03-01T00:25:01;4.95;;;3.60;;
67981;SDS011;64109;52.148;4.466;2023-03-01T00:27:27;6.20;;;4.30;;
67981;SDS011;64109;52.148;4.466;2023-03-01T00:29:53;4.68;;;3.35;;
67981;SDS011;64109;52.148;4.466;2023-03-01T00:32:19;3.90;;;3.50;;
67981;SDS011;64109;52.148;4.466;2023-03-01T00:34:45;5.65;;;3.60;;
67981;SDS011;64109;52.148;4.466;2023-03-01T00:37:19;4.97;;;3.85;;
67981;SDS011;64109;52.148;4.466;2023-03-01T00:39:45;4.65;;;3.80;;
67981;SDS011;64109;52.148;4.466;2023-03-01T00:42:11;4.60;;;3.75;;
67981;SDS011;64109;52.148;4.466;2023-03-01T00:44:37;5.03;;;3.65;;
67981;SDS011;64109;52.148;4.466;2023-03-01T00:47:03;5.18;;;3.60;;
67981;SDS011;64109;52.148;4.466;2023-03-01T00:49:29;4.63;;;3.30;;
67981;SDS011;64109;52.148;4.466;2023-03-01T00:51:55;5.13;;;4.10;;
67981;SDS011;64109;52.148;4.466;2023-03-01T00:54:21;4.53;;;2.75;;
67981;SDS011;64109;52.148;4.466;2023-03-01T00:56:47;5.00;;;3.85;;
67981;SDS011;64109;52.148;4.466;2023-03-01T00:59:13;6.32;;;4.05;;
67981;SDS011;64109;52.148;4.466;2023-03-01T01:01:39;5.13;;;3.50;;
67981;SDS011;64109;52.148;4.466;2023-03-01T01:04:06;7.13;;;3.83;;
67981;SDS011;64109;52.148;4.466;2023-03-01T01:06:34;5.60;;;4.15;;
67981;SDS011;64109;52.148;4.466;2023-03-01T01:09:00;4.38;;;3.90;;
67981;SDS011;64109;52.148;4.466;2023-03-01T01:11:27;5.50;;;3.97;;
67981;SDS011;64109;52.148;4.466;2023-03-01T01:13:54;4.57;;;3.85;;
67981;SDS011;64109;52.148;4.466;2023-03-01T01:16:21;5.15;;;3.97;;
67981;SDS011;64109;52.148;4.466;2023-03-01T01:18:47;5.30;;;3.72;;
67981;SDS011;64109;52.148;4.466;2023-03-01T01:21:14;5.65;;;3.67;;
67981;SDS011;64109;52.148;4.466;2023-03-01T01:23:41;5.95;;;4.22;;
67981;SDS011;64109;52.148;4.466;2023-03-01T01:26:08;5.40;;;3.95;;
67981;SDS011;64109;52.148;4.466;2023-03-01T01:28:34;5.57;;;4.40;;
67981;SDS011;64109;52.148;4.466;2023-03-01T01:31:01;5.40;;;3.55;;
67981;SDS011;64109;52.148;4.466;2023-03-01T01:33:27;6.22;;;4.45;;
67981;SDS011;64109;52.148;4.466;2023-03-01T01:35:53;6.13;;;4.40;;
67981;SDS011;64109;52.148;4.466;2023-03-01T01:38:19;4.75;;;4.20;;
67981;SDS011;64109;52.148;4.466;2023-03-01T01:40:46;5.60;;;4.57;;
67981;SDS011;64109;52.148;4.466;2023-03-01T01:43:20;5.53;;;3.63;;
67981;SDS011;64109;52.148;4.466;2023-03-01T01:45:46;7.40;;;4.93;;
67981;SDS011;64109;52.148;4.466;2023-03-01T01:48:13;5.35;;;4.25;;
67981;SDS011;64109;52.148;4.466;2023-03-01T01:50:40;5.38;;;4.18;;
67981;SDS011;64109;52.148;4.466;2023-03-01T01:53:10;6.60;;;4.25;;
67981;SDS011;64109;52.148;4.466;2023-03-01T01:55:39;7.55;;;3.20;;
67981;SDS011;64109;52.148;4.466;2023-03-01T01:58:07;5.53;;;4.43;;
67981;SDS011;64109;52.148;4.466;2023-03-01T02:00:35;5.20;;;4.07;;
67981;SDS011;64109;52.148;4.466;2023-03-01T02:03:05;6.97;;;4.80;;
67981;SDS011;64109;52.148;4.466;2023-03-01T02:07:58;4.53;;;3.72;;
67981;SDS011;64109;52.148;4.466;2023-03-01T02:10:24;5.28;;;4.40;;
67981;SDS011;64109;52.148;4.466;2023-03-01T02:12:51;5.97;;;4.45;;
67981;SDS011;64109;52.148;4.466;2023-03-01T02:15:17;6.53;;;4.65;;
67981;SDS011;64109;52.148;4.466;2023-03-01T02:17:43;5.63;;;4.03;;
67981;SDS011;64109;52.148;4.466;2023-03-01T02:22:44;4.45;;;3.80;;
67981;SDS011;64109;52.148;4.466;2023-03-01T02:27:49;5.18;;;3.45;;
67981;SDS011;64109;52.148;4.466;2023-03-01T02:30:18;5.85;;;4.97;;
67981;SDS011;64109;52.148;4.466;2023-03-01T02:32:44;7.03;;;3.75;;
67981;SDS011;64109;52.148;4.466;2023-03-01T02:35:12;3.80;;;3.17;;
67981;SDS011;64109;52.148;4.466;2023-03-01T02:37:39;4.25;;;3.55;;
67981;SDS011;64109;52.148;4.466;2023-03-01T02:40:06;7.93;;;4.35;;
67981;SDS011;64109;52.148;4.466;2023-03-01T02:42:36;5.30;;;3.88;;
67981;SDS011;64109;52.148;4.466;2023-03-01T02:47:31;6.35;;;4.82;;
67981;SDS011;64109;52.148;4.466;2023-03-01T02:49:57;6.03;;;4.00;;
67981;SDS011;64109;52.148;4.466;2023-03-01T02:52:27;6.95;;;4.82;;
67981;SDS011;64109;52.148;4.466;2023-03-01T02:57:21;6.82;;;4.50;;
67981;SDS011;64109;52.148;4.466;2023-03-01T02:59:47;5.22;;;4.55;;
67981;SDS011;64109;52.148;4.466;2023-03-01T03:02:24;5.03;;;3.92;;
67981;SDS011;64109;52.148;4.466;2023-03-01T03:05:08;6.25;;;4.55;;
67981;SDS011;64109;52.148;4.466;2023-03-01T03:07:35;3.10;;;2.50;;
67981;SDS011;64109;52.148;4.466;2023-03-01T03:10:02;5.53;;;3.33;;
67981;SDS011;64109;52.148;4.466;2023-03-01T03:12:29;5.07;;;4.32;;
67981;SDS011;64109;52.148;4.466;2023-03-01T03:14:55;5.15;;;4.55;;
67981;SDS011;64109;52.148;4.466;2023-03-01T03:17:21;6.05;;;4.55;;
67981;SDS011;64109;52.148;4.466;2023-03-01T03:19:46;4.95;;;3.63;;
67981;SDS011;64109;52.148;4.466;2023-03-01T03:22:12;6.50;;;5.00;;
67981;SDS011;64109;52.148;4.466;2023-03-01T03:24:39;10.30;;;4.35;;
67981;SDS011;64109;52.148;4.466;2023-03-01T03:27:05;5.35;;;3.97;;
67981;SDS011;64109;52.148;4.466;2023-03-01T03:29:31;5.72;;;4.25;;
67981;SDS011;64109;52.148;4.466;2023-03-01T03:31:57;4.68;;;4.18;;
67981;SDS011;64109;52.148;4.466;2023-03-01T03:34:23;5.70;;;3.63;;
67981;SDS011;64109;52.148;4.466;2023-03-01T03:36:55;5.57;;;4.10;;
67981;SDS011;64109;52.148;4.466;2023-03-01T03:39:24;6.93;;;4.40;;
67981;SDS011;64109;52.148;4.466;2023-03-01T03:41:50;4.18;;;3.40;;
67981;SDS011;64109;52.148;4.466;2023-03-01T03:44:16;5.13;;;3.92;;
67981;SDS011;64109;52.148;4.466;2023-03-01T03:46:42;3.70;;;3.03;;
67981;SDS011;64109;52.148;4.466;2023-03-01T03:49:08;4.60;;;3.80;;
67981;SDS011;64109;52.148;4.466;2023-03-01T03:51:34;4.78;;;4.22;;
67981;SDS011;64109;52.148;4.466;2023-03-01T03:54:00;4.80;;;2.80;;
67981;SDS011;64109;52.148;4.466;2023-03-01T03:56:26;4.90;;;3.30;;
67981;SDS011;64109;52.148;4.466;2023-03-01T03:58:52;4.88;;;3.83;;
67981;SDS011;64109;52.148;4.466;2023-03-01T04:01:18;4.57;;;2.92;;
67981;SDS011;64109;52.148;4.466;2023-03-01T04:03:44;4.82;;;3.60;;
67981;SDS011;64109;52.148;4.466;2023-03-01T04:06:12;5.50;;;3.92;;
67981;SDS011;64109;52.148;4.466;2023-03-01T04:08:38;6.30;;;3.92;;
67981;SDS011;64109;52.148;4.466;2023-03-01T04:11:04;4.15;;;3.58;;
67981;SDS011;64109;52.148;4.466;2023-03-01T04:13:50;3.45;;;2.92;;
67981;SDS011;64109;52.148;4.466;2023-03-01T04:16:17;5.47;;;3.63;;
67981;SDS011;64109;52.148;4.466;2023-03-01T04:18:43;3.72;;;2.45;;
67981;SDS011;64109;52.148;4.466;2023-03-01T04:21:09;3.42;;;2.25;;
67981;SDS011;64109;52.148;4.466;2023-03-01T04:23:36;3.78;;;2.75;;
67981;SDS011;64109;52.148;4.466;2023-03-01T04:26:02;3.25;;;2.95;;
67981;SDS011;64109;52.148;4.466;2023-03-01T04:30:54;4.18;;;3.45;;
67981;SDS011;64109;52.148;4.466;2023-03-01T04:33:21;4.75;;;3.85;;
67981;SDS011;64109;52.148;4.466;2023-03-01T04:35:47;4.47;;;3.25;;
67981;SDS011;64109;52.148;4.466;2023-03-01T04:38:19;5.25;;;3.13;;
67981;SDS011;64109;52.148;4.466;2023-03-01T04:40:46;4.70;;;3.22;;
67981;SDS011;64109;52.148;4.466;2023-03-01T04:43:12;3.90;;;2.90;;
67981;SDS011;64109;52.148;4.466;2023-03-01T04:45:39;3.45;;;3.15;;
67981;SDS011;64109;52.148;4.466;2023-03-01T04:48:05;5.38;;;2.92;;
67981;SDS011;64109;52.148;4.466;2023-03-01T04:50:31;4.13;;;2.80;;
67981;SDS011;64109;52.148;4.466;2023-03-01T04:52:57;4.68;;;3.08;;
67981;SDS011;64109;52.148;4.466;2023-03-01T04:55:27;3.65;;;2.92;;
67981;SDS011;64109;52.148;4.466;2023-03-01T04:57:53;3.58;;;2.85;;
67981;SDS011;64109;52.148;4.466;2023-03-01T05:00:19;3.30;;;2.75;;
67981;SDS011;64109;52.148;4.466;2023-03-01T05:02:46;3.03;;;2.67;;
67981;SDS011;64109;52.148;4.466;2023-03-01T05:05:13;3.28;;;2.92;;
67981;SDS011;64109;52.148;4.466;2023-03-01T05:07:39;4.05;;;2.83;;
67981;SDS011;64109;52.148;4.466;2023-03-01T05:10:05;4.57;;;3.35;;
67981;SDS011;64109;52.148;4.466;2023-03-01T05:12:31;3.63;;;2.22;;
67981;SDS011;64109;52.148;4.466;2023-03-01T05:14:57;3.28;;;2.58;;
67981;SDS011;64109;52.148;4.466;2023-03-01T05:17:23;3.60;;;2.20;;
67981;SDS011;64109;52.148;4.466;2023-03-01T05:19:49;4.40;;;2.90;;
67981;SDS011;64109;52.148;4.466;2023-03-01T05:22:15;4.07;;;3.35;;
67981;SDS011;64109;52.148;4.466;2023-03-01T05:24:41;4.13;;;3.05;;
67981;SDS011;64109;52.148;4.466;2023-03-01T05:27:07;5.15;;;3.17;;
67981;SDS011;64109;52.148;4.466;2023-03-01T05:29:33;4.85;;;3.75;;
67981;SDS011;64109;52.148;4.466;2023-03-01T05:32:00;3.90;;;3.47;;
67981;SDS011;64109;52.148;4.466;2023-03-01T05:34:30;3.55;;;3.00;;
67981;SDS011;64109;52.148;4.466;2023-03-01T05:36:57;4.20;;;2.55;;
67981;SDS011;64109;52.148;4.466;2023-03-01T05:39:24;4.50;;;2.97;;
67981;SDS011;64109;52.148;4.466;2023-03-01T05:41:57;5.13;;;2.90;;
67981;SDS011;64109;52.148;4.466;2023-03-01T05:44:23;3.20;;;1.95;;
67981;SDS011;64109;52.148;4.466;2023-03-01T05:46:50;4.35;;;2.95;;
67981;SDS011;64109;52.148;4.466;2023-03-01T05:49:16;3.83;;;3.42;;
67981;SDS011;64109;52.148;4.466;2023-03-01T05:51:42;4.32;;;2.75;;
67981;SDS011;64109;52.148;4.466;2023-03-01T05:54:09;3.85;;;3.30;;
67981;SDS011;64109;52.148;4.466;2023-03-01T05:56:35;4.80;;;3.58;;
67981;SDS011;64109;52.148;4.466;2023-03-01T05:59:02;4.22;;;3.30;;
67981;SDS011;64109;52.148;4.466;2023-03-01T06:01:28;4.15;;;2.97;;
67981;SDS011;64109;52.148;4.466;2023-03-01T06:03:54;3.95;;;3.55;;
67981;SDS011;64109;52.148;4.466;2023-03-01T06:06:21;3.33;;;2.80;;
67981;SDS011;64109;52.148;4.466;2023-03-01T06:08:47;4.22;;;3.38;;
67981;SDS011;64109;52.148;4.466;2023-03-01T06:11:13;3.78;;;2.88;;
67981;SDS011;64109;52.148;4.466;2023-03-01T06:13:40;4.35;;;3.40;;
67981;SDS011;64109;52.148;4.466;2023-03-01T06:16:06;4.32;;;3.20;;
67981;SDS011;64109;52.148;4.466;2023-03-01T06:18:33;4.22;;;3.40;;
67981;SDS011;64109;52.148;4.466;2023-03-01T06:20:59;4.72;;;3.67;;
67981;SDS011;64109;52.148;4.466;2023-03-01T06:23:25;3.50;;;2.83;;
67981;SDS011;64109;52.148;4.466;2023-03-01T06:25:51;5.13;;;3.05;;
67981;SDS011;64109;52.148;4.466;2023-03-01T06:28:17;4.15;;;2.88;;
67981;SDS011;64109;52.148;4.466;2023-03-01T06:30:43;4.45;;;2.67;;
67981;SDS011;64109;52.148;4.466;2023-03-01T06:33:09;4.63;;;2.85;;
67981;SDS011;64109;52.148;4.466;2023-03-01T06:35:35;3.55;;;3.25;;
67981;SDS011;64109;52.148;4.466;2023-03-01T06:38:02;4.45;;;3.28;;
67981;SDS011;64109;52.148;4.466;2023-03-01T06:40:29;3.90;;;3.20;;
67981;SDS011;64109;52.148;4.466;2023-03-01T06:42:56;3.50;;;2.35;;
67981;SDS011;64109;52.148;4.466;2023-03-01T06:45:22;4.03;;;3.42;;
67981;SDS011;64109;52.148;4.466;2023-03-01T06:47:48;4.22;;;2.50;;
67981;SDS011;64109;52.148;4.466;2023-03-01T06:50:14;4.95;;;3.28;;
67981;SDS011;64109;52.148;4.466;2023-03-01T06:52:40;5.55;;;2.92;;
67981;SDS011;64109;52.148;4.466;2023-03-01T06:55:09;8.63;;;3.38;;
67981;SDS011;64109;52.148;4.466;2023-03-01T06:57:35;3.63;;;2.95;;
67981;SDS011;64109;52.148;4.466;2023-03-01T07:00:01;6.95;;;3.92;;
67981;SDS011;64109;52.148;4.466;2023-03-01T07:02:27;5.13;;;3.10;;
67981;SDS011;64109;52.148;4.466;2023-03-01T07:04:53;5.53;;;3.53;;
67981;SDS011;64109;52.148;4.466;2023-03-01T07:07:19;3.75;;;3.00;;
67981;SDS011;64109;52.148;4.466;2023-03-01T07:09:46;3.67;;;2.88;;
67981;SDS011;64109;52.148;4.466;2023-03-01T07:12:12;4.35;;;3.22;;
67981;SDS011;64109;52.148;4.466;2023-03-01T07:14:38;5.30;;;3.03;;
67981;SDS011;64109;52.148;4.466;2023-03-01T07:17:04;4.38;;;3.47;;
67981;SDS011;64109;52.148;4.466;2023-03-01T07:19:30;5.07;;;3.50;;
67981;SDS011;64109;52.148;4.466;2023-03-01T07:21:56;4.78;;;3.17;;
67981;SDS011;64109;52.148;4.466;2023-03-01T07:24:22;7.53;;;5.55;;
67981;SDS011;64109;52.148;4.466;2023-03-01T07:26:51;8.77;;;6.25;;
67981;SDS011;64109;52.148;4.466;2023-03-01T07:29:18;7.40;;;5.65;;
67981;SDS011;64109;52.148;4.466;2023-03-01T07:31:44;8.55;;;6.95;;
67981;SDS011;64109;52.148;4.466;2023-03-01T07:34:10;10.07;;;7.15;;
67981;SDS011;64109;52.148;4.466;2023-03-01T07:36:36;10.63;;;7.22;;
67981;SDS011;64109;52.148;4.466;2023-03-01T07:39:02;9.32;;;6.95;;
67981;SDS011;64109;52.148;4.466;2023-03-01T07:41:29;9.43;;;6.93;;
67981;SDS011;64109;52.148;4.466;2023-03-01T07:43:55;18.55;;;6.50;;
67981;SDS011;64109;52.148;4.466;2023-03-01T07:46:21;11.85;;;6.28;;
67981;SDS011;64109;52.148;4.466;2023-03-01T07:48:47;11.50;;;5.88;;
67981;SDS011;64109;52.148;4.466;2023-03-01T07:51:13;7.40;;;5.63;;
67981;SDS011;64109;52.148;4.466;2023-03-01T07:53:39;8.95;;;5.63;;
67981;SDS011;64109;52.148;4.466;2023-03-01T07:56:09;7.22;;;5.43;;
67981;SDS011;64109;52.148;4.466;2023-03-01T07:58:40;7.40;;;5.47;;
67981;SDS011;64109;52.148;4.466;2023-03-01T08:01:07;9.98;;;5.50;;
67981;SDS011;64109;52.148;4.466;2023-03-01T08:03:34;7.53;;;4.93;;
67981;SDS011;64109;52.148;4.466;2023-03-01T08:06:00;6.93;;;5.25;;
67981;SDS011;64109;52.148;4.466;2023-03-01T08:08:26;7.03;;;4.78;;
67981;SDS011;64109;52.148;4.466;2023-03-01T08:10:55;8.98;;;5.70;;
67981;SDS011;64109;52.148;4.466;2023-03-01T08:13:21;8.02;;;5.25;;
67981;SDS011;64109;52.148;4.466;2023-03-01T08:15:48;7.03;;;5.65;;
67981;SDS011;64109;52.148;4.466;2023-03-01T08:18:14;8.10;;;5.03;;
67981;SDS011;64109;52.148;4.466;2023-03-01T08:20:40;8.13;;;4.93;;
67981;SDS011;64109;52.148;4.466;2023-03-01T08:23:06;4.40;;;2.55;;
67981;SDS011;64109;52.148;4.466;2023-03-01T08:25:32;5.88;;;3.78;;
67981;SDS011;64109;52.148;4.466;2023-03-01T08:27:58;7.88;;;3.58;;
67981;SDS011;64109;52.148;4.466;2023-03-01T08:30:25;7.47;;;3.22;;
67981;SDS011;64109;52.148;4.466;2023-03-01T08:32:51;4.70;;;3.33;;
67981;SDS011;64109;52.148;4.466;2023-03-01T08:35:17;5.80;;;3.40;;
67981;SDS011;64109;52.148;4.466;2023-03-01T08:37:43;6.72;;;3.45;;
67981;SDS011;64109;52.148;4.466;2023-03-01T08:40:09;5.43;;;3.97;;
67981;SDS011;64109;52.148;4.466;2023-03-01T08:42:36;4.60;;;3.38;;
67981;SDS011;64109;52.148;4.466;2023-03-01T08:45:03;6.65;;;3.63;;
67981;SDS011;64109;52.148;4.466;2023-03-01T08:47:29;7.05;;;4.10;;
67981;SDS011;64109;52.148;4.466;2023-03-01T08:49:55;7.93;;;4.22;;
67981;SDS011;64109;52.148;4.466;2023-03-01T08:52:21;4.65;;;3.65;;
67981;SDS011;64109;52.148;4.466;2023-03-01T08:54:47;6.57;;;3.55;;
67981;SDS011;64109;52.148;4.466;2023-03-01T08:57:14;4.78;;;3.55;;
67981;SDS011;64109;52.148;4.466;2023-03-01T08:59:40;4.30;;;3.72;;
67981;SDS011;64109;52.148;4.466;2023-03-01T09:02:10;4.45;;;2.88;;
67981;SDS011;64109;52.148;4.466;2023-03-01T09:04:36;6.47;;;4.15;;
67981;SDS011;64109;52.148;4.466;2023-03-01T09:07:02;7.88;;;3.90;;
67981;SDS011;64109;52.148;4.466;2023-03-01T09:09:28;6.15;;;3.92;;
67981;SDS011;64109;52.148;4.466;2023-03-01T09:11:54;5.38;;;3.40;;
67981;SDS011;64109;52.148;4.466;2023-03-01T09:14:20;6.30;;;3.95;;
67981;SDS011;64109;52.148;4.466;2023-03-01T09:16:46;4.75;;;3.35;;
67981;SDS011;64109;52.148;4.466;2023-03-01T09:19:13;8.60;;;5.30;;
67981;SDS011;64109;52.148;4.466;2023-03-01T09:21:39;23.67;;;4.72;;
67981;SDS011;64109;52.148;4.466;2023-03-01T09:24:05;7.18;;;3.25;;
67981;SDS011;64109;52.148;4.466;2023-03-01T09:26:32;5.50;;;3.40;;
67981;SDS011;64109;52.148;4.466;2023-03-01T09:28:58;6.35;;;3.78;;
67981;SDS011;64109;52.148;4.466;2023-03-01T09:31:24;6.80;;;4.32;;
67981;SDS011;64109;52.148;4.466;2023-03-01T09:33:51;5.00;;;3.45;;
67981;SDS011;64109;52.148;4.466;2023-03-01T09:36:18;4.93;;;3.20;;
67981;SDS011;64109;52.148;4.466;2023-03-01T09:38:45;6.72;;;3.33;;
67981;SDS011;64109;52.148;4.466;2023-03-01T09:46:11;5.63;;;3.67;;
67981;SDS011;64109;52.148;4.466;2023-03-01T09:48:46;5.07;;;3.92;;
67981;SDS011;64109;52.148;4.466;2023-03-01T09:51:24;4.13;;;2.67;;
67981;SDS011;64109;52.148;4.466;2023-03-01T09:53:52;4.93;;;3.30;;
67981;SDS011;64109;52.148;4.466;2023-03-01T09:56:22;4.65;;;3.42;;
67981;SDS011;64109;52.148;4.466;2023-03-01T10:01:23;6.38;;;3.72;;
67981;SDS011;64109;52.148;4.466;2023-03-01T10:04:04;6.45;;;3.80;;
67981;SDS011;64109;52.148;4.466;2023-03-01T10:06:35;4.53;;;3.40;;
67981;SDS011;64109;52.148;4.466;2023-03-01T10:09:22;9.57;;;3.08;;
67981;SDS011;64109;52.148;4.466;2023-03-01T10:11:52;5.93;;;3.55;;
67981;SDS011;64109;52.148;4.466;2023-03-01T10:17:01;4.28;;;3.22;;
67981;SDS011;64109;52.148;4.466;2023-03-01T10:19:44;4.85;;;3.10;;
67981;SDS011;64109;52.148;4.466;2023-03-01T10:22:29;4.22;;;3.05;;
67981;SDS011;64109;52.148;4.466;2023-03-01T10:24:59;4.85;;;3.25;;
67981;SDS011;64109;52.148;4.466;2023-03-01T10:27:49;5.30;;;2.88;;
67981;SDS011;64109;52.148;4.466;2023-03-01T10:32:42;6.68;;;3.25;;
67981;SDS011;64109;52.148;4.466;2023-03-01T10:35:19;4.97;;;3.42;;
67981;SDS011;64109;52.148;4.466;2023-03-01T10:37:56;4.53;;;2.90;;
67981;SDS011;64109;52.148;4.466;2023-03-01T10:40:22;4.70;;;3.08;;
67981;SDS011;64109;52.148;4.466;2023-03-01T10:42:48;5.82;;;2.80;;
67981;SDS011;64109;52.148;4.466;2023-03-01T10:50:32;3.70;;;2.88;;
67981;SDS011;64109;52.148;4.466;2023-03-01T10:52:59;3.88;;;2.47;;
67981;SDS011;64109;52.148;4.466;2023-03-01T10:55:36;5.18;;;3.42;;
67981;SDS011;64109;52.148;4.466;2023-03-01T10:58:16;4.90;;;2.53;;
67981;SDS011;64109;52.148;4.466;2023-03-01T11:03:18;3.33;;;1.90;;
67981;SDS011;64109;52.148;4.466;2023-03-01T11:05:55;4.68;;;3.45;;
67981;SDS011;64109;52.148;4.466;2023-03-01T11:08:29;4.35;;;2.83;;
67981;SDS011;64109;52.148;4.466;2023-03-01T11:11:05;4.40;;;2.17;;
67981;SDS011;64109;52.148;4.466;2023-03-01T11:13:32;6.47;;;3.03;;
67981;SDS011;64109;52.148;4.466;2023-03-01T11:15:58;5.32;;;3.15;;
67981;SDS011;64109;52.148;4.466;2023-03-01T11:18:25;5.05;;;3.15;;
67981;SDS011;64109;52.148;4.466;2023-03-01T11:20:51;4.85;;;3.28;;
67981;SDS011;64109;52.148;4.466;2023-03-01T11:23:18;5.38;;;3.45;;
67981;SDS011;64109;52.148;4.466;2023-03-01T11:25:47;4.18;;;2.75;;
67981;SDS011;64109;52.148;4.466;2023-03-01T11:30:45;4.05;;;2.90;;
67981;SDS011;64109;52.148;4.466;2023-03-01T11:35:47;4.63;;;2.55;;
67981;SDS011;64109;52.148;4.466;2023-03-01T11:46:32;4.20;;;1.90;;
67981;SDS011;64109;52.148;4.466;2023-03-01T11:54:13;4.05;;;2.50;;
67981;SDS011;64109;52.148;4.466;2023-03-01T11:56:47;4.72;;;2.40;;
67981;SDS011;64109;52.148;4.466;2023-03-01T11:59:24;4.15;;;2.60;;
67981;SDS011;64109;52.148;4.466;2023-03-01T12:06:57;4.28;;;3.03;;
67981;SDS011;64109;52.148;4.466;2023-03-01T12:12:07;4.28;;;2.70;;
67981;SDS011;64109;52.148;4.466;2023-03-01T12:17:25;4.53;;;2.30;;
67981;SDS011;64109;52.148;4.466;2023-03-01T12:22:30;4.20;;;2.63;;
67981;SDS011;64109;52.148;4.466;2023-03-01T12:27:26;4.63;;;2.70;;
67981;SDS011;64109;52.148;4.466;2023-03-01T12:29:58;3.25;;;2.38;;
67981;SDS011;64109;52.148;4.466;2023-03-01T12:35:01;3.50;;;2.45;;
67981;SDS011;64109;52.148;4.466;2023-03-01T12:40:01;4.93;;;2.75;;
67981;SDS011;64109;52.148;4.466;2023-03-01T12:47:55;3.22;;;2.45;;
67981;SDS011;64109;52.148;4.466;2023-03-01T12:50:24;2.92;;;2.38;;
67981;SDS011;64109;52.148;4.466;2023-03-01T12:52:52;3.92;;;2.33;;
67981;SDS011;64109;52.148;4.466;2023-03-01T12:55:29;3.90;;;2.58;;
67981;SDS011;64109;52.148;4.466;2023-03-01T13:00:31;2.92;;;2.40;;
67981;SDS011;64109;52.148;4.466;2023-03-01T13:03:22;4.65;;;2.20;;
67981;SDS011;64109;52.148;4.466;2023-03-01T13:05:56;3.42;;;1.35;;
67981;SDS011;64109;52.148;4.466;2023-03-01T13:08:31;4.40;;;2.47;;
67981;SDS011;64109;52.148;4.466;2023-03-01T13:11:00;3.95;;;2.25;;
67981;SDS011;64109;52.148;4.466;2023-03-01T13:13:27;3.58;;;2.17;;
67981;SDS011;64109;52.148;4.466;2023-03-01T13:15:54;3.92;;;2.55;;
67981;SDS011;64109;52.148;4.466;2023-03-01T13:20:51;3.72;;;2.53;;
67981;SDS011;64109;52.148;4.466;2023-03-01T13:44:13;4.22;;;2.30;;
67981;SDS011;64109;52.148;4.466;2023-03-01T13:46:43;2.65;;;2.45;;
67981;SDS011;64109;52.148;4.466;2023-03-01T13:49:11;4.20;;;2.05;;
67981;SDS011;64109;52.148;4.466;2023-03-01T13:51:39;3.60;;;2.47;;
67981;SDS011;64109;52.148;4.466;2023-03-01T13:54:09;3.38;;;2.50;;
67981;SDS011;64109;52.148;4.466;2023-03-01T13:56:37;3.38;;;2.17;;
67981;SDS011;64109;52.148;4.466;2023-03-01T13:59:12;4.68;;;2.40;;
67981;SDS011;64109;52.148;4.466;2023-03-01T14:01:38;3.63;;;2.20;;
67981;SDS011;64109;52.148;4.466;2023-03-01T14:04:18;5.30;;;2.30;;
67981;SDS011;64109;52.148;4.466;2023-03-01T14:06:45;5.60;;;2.47;;
67981;SDS011;64109;52.148;4.466;2023-03-01T14:09:16;4.35;;;2.40;;
67981;SDS011;64109;52.148;4.466;2023-03-01T14:19:31;6.25;;;1.83;;
67981;SDS011;64109;52.148;4.466;2023-03-01T14:22:21;5.65;;;1.80;;
67981;SDS011;64109;52.148;4.466;2023-03-01T14:27:28;4.30;;;2.08;;
67981;SDS011;64109;52.148;4.466;2023-03-01T14:29:56;5.10;;;2.20;;
67981;SDS011;64109;52.148;4.466;2023-03-01T14:32:26;2.75;;;2.10;;
67981;SDS011;64109;52.148;4.466;2023-03-01T14:34:53;3.30;;;2.13;;
67981;SDS011;64109;52.148;4.466;2023-03-01T14:39:48;4.90;;;2.25;;
67981;SDS011;64109;52.148;4.466;2023-03-01T14:42:14;2.45;;;1.85;;
67981;SDS011;64109;52.148;4.466;2023-03-01T14:44:41;2.35;;;1.70;;
67981;SDS011;64109;52.148;4.466;2023-03-01T14:47:15;3.05;;;1.88;;
67981;SDS011;64109;52.148;4.466;2023-03-01T14:49:41;2.00;;;1.02;;
67981;SDS011;64109;52.148;4.466;2023-03-01T14:52:18;2.83;;;2.10;;
67981;SDS011;64109;52.148;4.466;2023-03-01T14:57:23;3.97;;;1.88;;
67981;SDS011;64109;52.148;4.466;2023-03-01T14:59:50;3.28;;;2.47;;
67981;SDS011;64109;52.148;4.466;2023-03-01T15:02:18;5.35;;;2.08;;
67981;SDS011;64109;52.148;4.466;2023-03-01T15:04:46;4.57;;;2.35;;
67981;SDS011;64109;52.148;4.466;2023-03-01T15:07:13;2.95;;;1.98;;
67981;SDS011;64109;52.148;4.466;2023-03-01T15:09:39;2.75;;;2.22;;
67981;SDS011;64109;52.148;4.466;2023-03-01T15:14:51;4.40;;;1.90;;
67981;SDS011;64109;52.148;4.466;2023-03-01T15:17:26;4.15;;;1.92;;
67981;SDS011;64109;52.148;4.466;2023-03-01T15:19:52;2.30;;;2.10;;
67981;SDS011;64109;52.148;4.466;2023-03-01T15:22:19;2.38;;;2.17;;
67981;SDS011;64109;52.148;4.466;2023-03-01T15:24:47;3.08;;;1.80;;
67981;SDS011;64109;52.148;4.466;2023-03-01T15:27:15;2.22;;;1.10;;
67981;SDS011;64109;52.148;4.466;2023-03-01T15:29:41;5.07;;;2.70;;
67981;SDS011;64109;52.148;4.466;2023-03-01T15:32:27;11.38;;;4.03;;
67981;SDS011;64109;52.148;4.466;2023-03-01T15:34:53;11.23;;;3.63;;
67981;SDS011;64109;52.148;4.466;2023-03-01T15:37:39;15.85;;;4.40;;
67981;SDS011;64109;52.148;4.466;2023-03-01T15:42:45;14.48;;;5.43;;
67981;SDS011;64109;52.148;4.466;2023-03-01T15:47:48;38.15;;;16.67;;
67981;SDS011;64109;52.148;4.466;2023-03-01T15:50:16;59.15;;;30.90;;
67981;SDS011;64109;52.148;4.466;2023-03-01T15:52:43;62.03;;;30.55;;
67981;SDS011;64109;52.148;4.466;2023-03-01T15:55:14;63.63;;;33.20;;
67981;SDS011;64109;52.148;4.466;2023-03-01T15:57:41;63.20;;;32.08;;
67981;SDS011;64109;52.148;4.466;2023-03-01T16:00:11;60.63;;;33.38;;
67981;SDS011;64109;52.148;4.466;2023-03-01T16:02:38;55.42;;;30.05;;
67981;SDS011;64109;52.148;4.466;2023-03-01T16:05:04;61.88;;;34.15;;
67981;SDS011;64109;52.148;4.466;2023-03-01T16:07:30;61.33;;;33.72;;
67981;SDS011;64109;52.148;4.466;2023-03-01T16:09:57;63.63;;;34.42;;
67981;SDS011;64109;52.148;4.466;2023-03-01T16:12:23;60.03;;;33.22;;
67981;SDS011;64109;52.148;4.466;2023-03-01T16:14:49;58.00;;;31.92;;
67981;SDS011;64109;52.148;4.466;2023-03-01T16:17:18;55.22;;;28.65;;
67981;SDS011;64109;52.148;4.466;2023-03-01T16:19:44;60.00;;;32.90;;
67981;SDS011;64109;52.148;4.466;2023-03-01T16:22:10;58.42;;;31.50;;
67981;SDS011;64109;52.148;4.466;2023-03-01T16:24:36;60.20;;;33.78;;
67981;SDS011;64109;52.148;4.466;2023-03-01T16:27:02;60.22;;;31.25;;
67981;SDS011;64109;52.148;4.466;2023-03-01T16:29:28;59.45;;;30.45;;
67981;SDS011;64109;52.148;4.466;2023-03-01T16:31:54;54.70;;;29.45;;
67981;SDS011;64109;52.148;4.466;2023-03-01T16:34:20;51.90;;;28.58;;
67981;SDS011;64109;52.148;4.466;2023-03-01T16:36:47;52.75;;;30.00;;
67981;SDS011;64109;52.148;4.466;2023-03-01T16:39:13;49.55;;;27.95;;
67981;SDS011;64109;52.148;4.466;2023-03-01T16:41:39;48.42;;;27.48;;
67981;SDS011;64109;52.148;4.466;2023-03-01T16:44:05;49.88;;;26.67;;
67981;SDS011;64109;52.148;4.466;2023-03-01T16:46:31;45.58;;;25.27;;
67981;SDS011;64109;52.148;4.466;2023-03-01T16:48:57;47.75;;;26.40;;
67981;SDS011;64109;52.148;4.466;2023-03-01T16:51:23;44.05;;;24.27;;
67981;SDS011;64109;52.148;4.466;2023-03-01T16:53:50;41.90;;;23.85;;
67981;SDS011;64109;52.148;4.466;2023-03-01T16:56:16;43.65;;;24.73;;
67981;SDS011;64109;52.148;4.466;2023-03-01T16:58:43;46.10;;;24.70;;